createdAt,value
2019-03-12T00:00:53.614Z,1013.63
2019-03-12T00:01:53.545Z,1013.65
2019-03-12T00:02:53.482Z,1013.64
2019-03-12T00:03:53.477Z,1013.65
2019-03-12T00:04:53.487Z,1013.69
2019-03-12T00:05:53.456Z,1013.76
2019-03-12T00:06:53.552Z,1013.77
2019-03-12T00:07:53.430Z,1013.80
2019-03-12T00:08:53.422Z,1013.80
2019-03-12T00:09:53.993Z,1013.85
2019-03-12T00:10:53.401Z,1013.84
2019-03-12T00:11:53.484Z,1013.88
2019-03-12T00:13:00.048Z,1013.85
2019-03-12T00:13:53.413Z,1013.85
2019-03-12T00:14:53.407Z,1013.84
2019-03-12T00:15:53.373Z,1013.91
2019-03-12T00:16:53.373Z,1013.95
2019-03-12T00:17:53.394Z,1014.02
2019-03-12T00:18:53.319Z,1014.05
2019-03-12T00:19:53.302Z,1014.09
2019-03-12T00:20:53.293Z,1014.09
2019-03-12T00:21:53.309Z,1014.11
2019-03-12T00:22:53.272Z,1014.05
2019-03-12T00:23:53.444Z,1014.11
2019-03-12T00:24:53.281Z,1014.09
2019-03-12T00:25:53.242Z,1014.06
2019-03-12T00:26:53.256Z,1014.11
2019-03-12T00:27:53.235Z,1014.09
2019-03-12T00:28:53.784Z,1014.08
2019-03-12T00:29:53.264Z,1014.13
2019-03-12T00:30:53.179Z,1014.07
2019-03-12T00:31:53.173Z,1014.02
2019-03-12T00:32:55.605Z,1014.01
2019-03-12T00:33:53.242Z,1014.04
2019-03-12T00:34:53.150Z,1014.04
2019-03-12T00:35:53.204Z,1014.00
2019-03-12T00:36:53.161Z,1014.06
2019-03-12T00:37:53.114Z,1014.10
2019-03-12T00:38:53.097Z,1014.10
2019-03-12T00:39:53.086Z,1014.07
2019-03-12T00:40:53.089Z,1014.11
2019-03-12T00:41:53.151Z,1014.11
2019-03-12T00:42:53.052Z,1014.13
2019-03-12T00:43:53.043Z,1014.13
2019-03-12T00:44:53.035Z,1014.12
2019-03-12T00:45:53.019Z,1014.13
2019-03-12T00:46:53.011Z,1014.12
2019-03-12T00:47:53.129Z,1014.11
2019-03-12T00:48:53.003Z,1014.11
2019-03-12T00:49:52.985Z,1014.14
2019-03-12T00:50:52.966Z,1014.09
2019-03-12T00:51:52.953Z,1014.06
2019-03-12T00:52:52.946Z,1014.10
2019-03-12T00:53:53.181Z,1014.10
2019-03-12T00:54:52.923Z,1014.14
2019-03-12T00:55:52.913Z,1014.16
2019-03-12T00:56:52.916Z,1014.22
2019-03-12T00:57:52.968Z,1014.23
2019-03-12T00:58:52.883Z,1014.18
2019-03-12T00:59:56.223Z,1014.26
2019-03-12T01:00:52.859Z,1014.27
2019-03-12T01:01:52.846Z,1014.28
2019-03-12T01:02:52.849Z,1014.31
2019-03-12T01:03:52.883Z,1014.35
2019-03-12T01:04:52.821Z,1014.38
2019-03-12T01:05:52.800Z,1014.43
2019-03-12T01:06:52.793Z,1014.40
2019-03-12T01:07:52.785Z,1014.41
2019-03-12T01:08:52.840Z,1014.39
2019-03-12T01:09:52.764Z,1014.40
2019-03-12T01:10:52.995Z,1014.49
2019-03-12T01:11:52.791Z,1014.50
2019-03-12T01:12:52.747Z,1014.52
2019-03-12T01:13:52.785Z,1014.60
2019-03-12T01:14:52.714Z,1014.60
2019-03-12T01:15:52.698Z,1014.66
2019-03-12T01:16:52.689Z,1014.65
2019-03-12T01:17:52.674Z,1014.69
2019-03-12T01:18:52.676Z,1014.69
2019-03-12T01:19:52.730Z,1014.69
2019-03-12T01:20:52.709Z,1014.70
2019-03-12T01:21:52.635Z,1014.74
2019-03-12T01:22:52.621Z,1014.69
2019-03-12T01:23:52.612Z,1014.65
2019-03-12T01:24:52.593Z,1014.66
2019-03-12T01:25:52.603Z,1014.68
2019-03-12T01:26:52.649Z,1014.68
2019-03-12T01:27:52.681Z,1014.72
2019-03-12T01:28:52.552Z,1014.70
2019-03-12T01:29:52.550Z,1014.70
2019-03-12T01:30:52.533Z,1014.69
2019-03-12T01:31:53.191Z,1014.73
2019-03-12T01:32:52.512Z,1014.72
2019-03-12T01:33:52.631Z,1014.76
2019-03-12T01:34:52.489Z,1014.76
2019-03-12T01:35:52.515Z,1014.77
2019-03-12T01:36:52.466Z,1014.78
2019-03-12T01:37:52.457Z,1014.77
2019-03-12T01:38:52.445Z,1014.85
2019-03-12T01:39:52.503Z,1014.87
2019-03-12T01:40:52.429Z,1014.87
2019-03-12T01:41:52.418Z,1014.84
2019-03-12T01:42:52.703Z,1014.80
2019-03-12T01:43:52.422Z,1014.85
2019-03-12T01:44:52.414Z,1014.85
2019-03-12T01:45:52.453Z,1014.86
2019-03-12T01:46:52.369Z,1014.92
2019-03-12T01:47:52.355Z,1014.98
2019-03-12T01:48:52.427Z,1014.97
2019-03-12T01:49:52.335Z,1015.06
2019-03-12T01:50:52.413Z,1015.04
2019-03-12T01:51:52.317Z,1015.04
2019-03-12T01:52:52.348Z,1015.04
2019-03-12T01:53:52.299Z,1015.07
2019-03-12T01:54:52.289Z,1015.03
2019-03-12T01:55:52.269Z,1015.04
2019-03-12T01:56:52.321Z,1015.03
2019-03-12T01:57:52.252Z,1015.09
2019-03-12T01:58:52.268Z,1015.09
2019-03-12T01:59:52.233Z,1015.11
2019-03-12T02:00:52.231Z,1015.12
2019-03-12T02:01:52.354Z,1015.10
2019-03-12T02:02:52.195Z,1015.05
2019-03-12T02:03:52.204Z,1015.03
2019-03-12T02:04:52.177Z,1015.04
2019-03-12T02:05:52.166Z,1014.99
2019-03-12T02:06:52.150Z,1015.06
2019-03-12T02:07:52.210Z,1015.10
2019-03-12T02:08:52.126Z,1015.09
2019-03-12T02:09:52.118Z,1015.04
2019-03-12T02:10:52.110Z,1015.01
2019-03-12T02:11:52.123Z,1015.04
2019-03-12T02:12:52.105Z,1015.01
2019-03-12T02:13:52.146Z,1015.01
2019-03-12T02:14:52.196Z,1014.99
2019-03-12T02:15:52.053Z,1015.03
2019-03-12T02:16:52.051Z,1015.00
2019-03-12T02:17:52.044Z,1015.03
2019-03-12T02:18:52.167Z,1015.02
2019-03-12T02:19:52.011Z,1015.02
2019-03-12T02:20:52.028Z,1015.04
2019-03-12T02:21:52.016Z,1015.09
2019-03-12T02:22:51.994Z,1015.06
2019-03-12T02:23:52.045Z,1015.09
2019-03-12T02:24:53.163Z,1015.05
2019-03-12T02:25:51.945Z,1015.12
2019-03-12T02:26:51.941Z,1015.08
2019-03-12T02:27:51.926Z,1015.07
2019-03-12T02:28:51.927Z,1015.11
2019-03-12T02:29:51.973Z,1015.11
2019-03-12T02:30:51.902Z,1015.13
2019-03-12T02:31:51.926Z,1015.12
2019-03-12T02:32:51.876Z,1015.13
2019-03-12T02:33:51.883Z,1015.12
2019-03-12T02:34:51.872Z,1015.14
2019-03-12T02:35:51.944Z,1015.18
2019-03-12T02:36:51.907Z,1015.18
2019-03-12T02:37:51.821Z,1015.18
2019-03-12T02:38:51.818Z,1015.18
2019-03-12T02:39:51.799Z,1015.22
2019-03-12T02:40:52.451Z,1015.21
2019-03-12T02:41:51.782Z,1015.19
2019-03-12T02:42:51.854Z,1015.19
2019-03-12T02:43:51.760Z,1015.24
2019-03-12T02:44:51.743Z,1015.30
2019-03-12T02:45:51.744Z,1015.33
2019-03-12T02:46:51.814Z,1015.34
2019-03-12T02:47:51.754Z,1015.34
2019-03-12T02:48:51.699Z,1015.36
2019-03-12T02:49:51.693Z,1015.34
2019-03-12T02:50:51.713Z,1015.31
2019-03-12T02:51:51.686Z,1015.30
2019-03-12T02:52:51.783Z,1015.25
2019-03-12T02:53:51.655Z,1015.26
2019-03-12T02:54:51.643Z,1015.29
2019-03-12T02:55:51.635Z,1015.29
2019-03-12T02:56:51.635Z,1015.25
2019-03-12T02:57:51.633Z,1015.29
2019-03-12T02:58:51.652Z,1015.24
2019-03-12T02:59:51.581Z,1015.26
2019-03-12T03:00:51.570Z,1015.28
2019-03-12T03:01:51.565Z,1015.27
2019-03-12T03:02:51.572Z,1015.29
2019-03-12T03:03:51.677Z,1015.34
2019-03-12T03:04:54.214Z,1015.35
2019-03-12T03:05:51.517Z,1015.33
2019-03-12T03:06:51.514Z,1015.36
2019-03-12T03:07:51.570Z,1015.36
2019-03-12T03:08:51.497Z,1015.35
2019-03-12T03:09:51.694Z,1015.36
2019-03-12T03:10:51.500Z,1015.34
2019-03-12T03:11:51.536Z,1015.42
2019-03-12T03:12:51.509Z,1015.41
2019-03-12T03:13:51.442Z,1015.41
2019-03-12T03:14:51.449Z,1015.39
2019-03-12T03:15:51.509Z,1015.34
2019-03-12T03:16:51.434Z,1015.37
2019-03-12T03:17:51.419Z,1015.41
2019-03-12T03:18:51.404Z,1015.43
2019-03-12T03:19:51.383Z,1015.46
2019-03-12T03:20:51.466Z,1015.43
2019-03-12T03:21:51.353Z,1015.43
2019-03-12T03:22:51.336Z,1015.47
2019-03-12T03:23:51.319Z,1015.52
2019-03-12T03:24:51.320Z,1015.49
2019-03-12T03:25:51.307Z,1015.56
2019-03-12T03:26:52.392Z,1015.54
2019-03-12T03:27:51.297Z,1015.55
2019-03-12T03:28:51.451Z,1015.55
2019-03-12T03:29:51.259Z,1015.50
2019-03-12T03:30:51.339Z,1015.53
2019-03-12T03:31:51.246Z,1015.52
2019-03-12T03:32:51.246Z,1015.54
2019-03-12T03:33:51.244Z,1015.52
2019-03-12T03:34:51.354Z,1015.53
2019-03-12T03:35:51.204Z,1015.54
2019-03-12T03:36:51.221Z,1015.56
2019-03-12T03:37:51.231Z,1015.49
2019-03-12T03:38:51.171Z,1015.50
2019-03-12T03:39:51.165Z,1015.47
2019-03-12T03:40:51.214Z,1015.51
2019-03-12T03:41:51.149Z,1015.52
2019-03-12T03:42:51.128Z,1015.53
2019-03-12T03:43:54.068Z,1015.50
2019-03-12T03:44:51.106Z,1015.49
2019-03-12T03:45:51.179Z,1015.50
2019-03-12T03:46:51.082Z,1015.47
2019-03-12T03:47:51.075Z,1015.50
2019-03-12T03:48:51.066Z,1015.49
2019-03-12T03:49:51.046Z,1015.40
2019-03-12T03:50:51.076Z,1015.41
2019-03-12T03:51:51.119Z,1015.44
2019-03-12T03:52:51.145Z,1015.40
2019-03-12T03:53:51.004Z,1015.41
2019-03-12T03:54:50.995Z,1015.39
2019-03-12T03:55:50.980Z,1015.36
2019-03-12T03:56:51.003Z,1015.41
2019-03-12T03:57:51.020Z,1015.40
2019-03-12T03:58:51.159Z,1015.38
2019-03-12T03:59:50.956Z,1015.37
2019-03-12T04:00:50.928Z,1015.33
2019-03-12T04:01:50.912Z,1015.39
2019-03-12T04:02:50.924Z,1015.40
2019-03-12T04:03:50.900Z,1015.39
2019-03-12T04:04:50.963Z,1015.40
2019-03-12T04:05:50.871Z,1015.45
2019-03-12T04:06:50.892Z,1015.45
2019-03-12T04:07:50.874Z,1015.43
2019-03-12T04:08:50.846Z,1015.46
2019-03-12T04:09:50.858Z,1015.47
2019-03-12T04:10:50.894Z,1015.45
2019-03-12T04:11:50.808Z,1015.52
2019-03-12T04:12:51.120Z,1015.50
2019-03-12T04:13:50.800Z,1015.50
2019-03-12T04:14:50.791Z,1015.54
2019-03-12T04:15:50.765Z,1015.54
2019-03-12T04:16:50.862Z,1015.55
2019-03-12T04:17:50.749Z,1015.53
2019-03-12T04:18:50.729Z,1015.56
2019-03-12T04:19:50.751Z,1015.63
2019-03-12T04:20:50.776Z,1015.63
2019-03-12T04:21:50.706Z,1015.64
2019-03-12T04:22:50.705Z,1015.59
2019-03-12T04:23:50.680Z,1015.58
2019-03-12T04:24:50.665Z,1015.59
2019-03-12T04:25:50.656Z,1015.59
2019-03-12T04:26:50.724Z,1015.53
2019-03-12T04:27:50.632Z,1015.59
2019-03-12T04:28:50.626Z,1015.57
2019-03-12T04:29:50.617Z,1015.55
2019-03-12T04:30:50.624Z,1015.54
2019-03-12T04:31:50.660Z,1015.57
2019-03-12T04:32:50.612Z,1015.58
2019-03-12T04:33:50.594Z,1015.60
2019-03-12T04:34:50.560Z,1015.62
2019-03-12T04:35:50.551Z,1015.59
2019-03-12T04:36:50.544Z,1015.61
2019-03-12T04:37:50.634Z,1015.62
2019-03-12T04:38:50.526Z,1015.67
2019-03-12T04:39:50.503Z,1015.65
2019-03-12T04:40:50.496Z,1015.66
2019-03-12T04:41:50.484Z,1015.61
2019-03-12T04:42:50.502Z,1015.66
2019-03-12T04:43:50.515Z,1015.66
2019-03-12T04:44:50.445Z,1015.64
2019-03-12T04:45:50.441Z,1015.66
2019-03-12T04:46:50.425Z,1015.68
2019-03-12T04:47:50.408Z,1015.70
2019-03-12T04:48:50.410Z,1015.70
2019-03-12T04:49:50.492Z,1015.69
2019-03-12T04:50:50.381Z,1015.64
2019-03-12T04:51:50.373Z,1015.67
2019-03-12T04:52:50.368Z,1015.68
2019-03-12T04:53:50.346Z,1015.64
2019-03-12T04:54:50.419Z,1015.65
2019-03-12T04:55:50.338Z,1015.63
2019-03-12T04:56:50.314Z,1015.62
2019-03-12T04:57:50.306Z,1015.60
2019-03-12T04:58:50.295Z,1015.57
2019-03-12T04:59:50.287Z,1015.55
2019-03-12T05:00:50.339Z,1015.60
2019-03-12T05:01:50.335Z,1015.55
2019-03-12T05:02:50.363Z,1015.56
2019-03-12T05:03:50.247Z,1015.59
2019-03-12T05:04:50.230Z,1015.54
2019-03-12T05:05:50.246Z,1015.58
2019-03-12T05:06:50.291Z,1015.59
2019-03-12T05:07:50.208Z,1015.55
2019-03-12T05:08:50.262Z,1015.64
2019-03-12T05:09:50.168Z,1015.61
2019-03-12T05:10:50.171Z,1015.62
2019-03-12T05:11:50.249Z,1015.63
2019-03-12T05:12:50.142Z,1015.63
2019-03-12T05:13:50.152Z,1015.60
2019-03-12T05:14:50.123Z,1015.64
2019-03-12T05:15:50.102Z,1015.66
2019-03-12T05:16:50.094Z,1015.64
2019-03-12T05:17:50.256Z,1015.62
2019-03-12T05:18:50.097Z,1015.66
2019-03-12T05:19:50.117Z,1015.62
2019-03-12T05:20:50.066Z,1015.63
2019-03-12T05:21:50.043Z,1015.62
2019-03-12T05:22:50.039Z,1015.63
2019-03-12T05:23:50.103Z,1015.65
2019-03-12T05:24:50.016Z,1015.69
2019-03-12T05:25:49.994Z,1015.72
2019-03-12T05:26:49.982Z,1015.67
2019-03-12T05:27:49.978Z,1015.70
2019-03-12T05:28:50.049Z,1015.69
2019-03-12T05:29:49.949Z,1015.69
2019-03-12T05:30:49.935Z,1015.70
2019-03-12T05:31:49.947Z,1015.75
2019-03-12T05:32:49.919Z,1015.76
2019-03-12T05:33:49.985Z,1015.78
2019-03-12T05:34:49.965Z,1015.80
2019-03-12T05:35:49.899Z,1015.78
2019-03-12T05:36:49.930Z,1015.80
2019-03-12T05:37:49.904Z,1015.81
2019-03-12T05:38:49.857Z,1015.78
2019-03-12T05:39:49.953Z,1015.81
2019-03-12T05:40:49.911Z,1015.85
2019-03-12T05:41:49.829Z,1015.83
2019-03-12T05:42:49.808Z,1015.79
2019-03-12T05:43:49.791Z,1015.83
2019-03-12T05:44:49.792Z,1015.79
2019-03-12T05:45:49.941Z,1015.80
2019-03-12T05:46:49.763Z,1015.78
2019-03-12T05:47:49.755Z,1015.81
2019-03-12T05:48:49.751Z,1015.80
2019-03-12T05:49:49.795Z,1015.87
2019-03-12T05:50:49.727Z,1015.77
2019-03-12T05:51:49.705Z,1015.80
2019-03-12T05:52:49.784Z,1015.80
2019-03-12T05:53:49.723Z,1015.83
2019-03-12T05:54:49.686Z,1015.87
2019-03-12T05:55:49.798Z,1015.91
2019-03-12T05:56:49.745Z,1015.96
2019-03-12T05:57:49.642Z,1015.95
2019-03-12T05:58:49.629Z,1015.94
2019-03-12T05:59:49.616Z,1015.97
2019-03-12T06:00:49.613Z,1015.91
2019-03-12T06:01:49.604Z,1015.92
2019-03-12T06:02:49.665Z,1015.92
2019-03-12T06:03:49.574Z,1015.91
2019-03-12T06:04:49.570Z,1015.94
2019-03-12T06:05:49.561Z,1015.96
2019-03-12T06:06:49.546Z,1015.95
2019-03-12T06:07:49.550Z,1015.97
2019-03-12T06:08:49.716Z,1016.01
2019-03-12T06:09:49.559Z,1015.96
2019-03-12T06:10:49.501Z,1015.98
2019-03-12T06:11:49.484Z,1015.93
2019-03-12T06:12:49.481Z,1015.90
2019-03-12T06:13:49.586Z,1015.92
2019-03-12T06:14:49.537Z,1015.95
2019-03-12T06:15:49.503Z,1015.96
2019-03-12T06:16:49.469Z,1015.95
2019-03-12T06:17:49.474Z,1015.95
2019-03-12T06:18:49.440Z,1015.93
2019-03-12T06:19:49.539Z,1015.90
2019-03-12T06:20:49.507Z,1015.93
2019-03-12T06:21:49.375Z,1015.92
2019-03-12T06:22:49.370Z,1015.95
2019-03-12T06:23:49.362Z,1015.84
2019-03-12T06:24:49.352Z,1015.89
2019-03-12T06:25:49.382Z,1015.91
2019-03-12T06:26:49.463Z,1015.85
2019-03-12T06:27:49.310Z,1015.84
2019-03-12T06:28:49.299Z,1015.92
2019-03-12T06:29:49.308Z,1015.86
2019-03-12T06:30:49.342Z,1015.78
2019-03-12T06:31:49.262Z,1015.83
2019-03-12T06:32:49.251Z,1015.81
2019-03-12T06:33:49.246Z,1015.81
2019-03-12T06:34:49.256Z,1015.79
2019-03-12T06:35:49.221Z,1015.77
2019-03-12T06:36:49.287Z,1015.78
2019-03-12T06:37:49.215Z,1015.77
2019-03-12T06:38:49.193Z,1015.78
2019-03-12T06:39:49.185Z,1015.75
2019-03-12T06:40:49.254Z,1015.78
2019-03-12T06:41:49.156Z,1015.78
2019-03-12T06:42:49.288Z,1015.84
2019-03-12T06:43:49.132Z,1015.83
2019-03-12T06:44:49.129Z,1015.89
2019-03-12T06:45:49.119Z,1015.83
2019-03-12T06:46:49.101Z,1015.83
2019-03-12T06:47:49.101Z,1015.79
2019-03-12T06:48:49.199Z,1015.83
2019-03-12T06:49:49.079Z,1015.88
2019-03-12T06:50:49.135Z,1015.91
2019-03-12T06:51:49.052Z,1015.92
2019-03-12T06:52:49.039Z,1015.95
2019-03-12T06:53:49.033Z,1015.93
2019-03-12T06:54:50.095Z,1015.93
2019-03-12T06:55:49.071Z,1015.95
2019-03-12T06:56:48.996Z,1015.96
2019-03-12T06:57:48.987Z,1015.98
2019-03-12T06:58:48.972Z,1015.96
2019-03-12T06:59:48.961Z,1015.97
2019-03-12T07:00:49.044Z,1015.95
2019-03-12T07:01:48.999Z,1015.98
2019-03-12T07:02:48.931Z,1015.91
2019-03-12T07:03:48.926Z,1015.95
2019-03-12T07:04:48.907Z,1015.92
2019-03-12T07:05:48.898Z,1015.88
2019-03-12T07:06:48.964Z,1015.83
2019-03-12T07:07:48.871Z,1015.85
2019-03-12T07:08:48.887Z,1015.89
2019-03-12T07:09:48.851Z,1015.84
2019-03-12T07:10:48.841Z,1015.88
2019-03-12T07:11:48.918Z,1015.86
2019-03-12T07:12:48.825Z,1015.86
2019-03-12T07:13:48.805Z,1015.89
2019-03-12T07:14:48.875Z,1015.85
2019-03-12T07:15:49.176Z,1015.85
2019-03-12T07:16:48.792Z,1015.79
2019-03-12T07:17:48.835Z,1015.78
2019-03-12T07:18:48.750Z,1015.84
2019-03-12T07:19:48.820Z,1015.84
2019-03-12T07:20:48.741Z,1015.88
2019-03-12T07:21:48.721Z,1015.86
2019-03-12T07:22:48.710Z,1015.85
2019-03-12T07:23:48.789Z,1015.84
2019-03-12T07:24:48.711Z,1015.86
2019-03-12T07:25:50.940Z,1015.88
2019-03-12T07:26:48.746Z,1015.84
2019-03-12T07:27:48.658Z,1015.85
2019-03-12T07:28:50.539Z,1015.92
2019-03-12T07:29:48.655Z,1015.84
2019-03-12T07:30:48.643Z,1015.84
2019-03-12T07:31:48.760Z,1015.85
2019-03-12T07:32:48.598Z,1015.90
2019-03-12T07:33:48.677Z,1015.90
2019-03-12T07:34:48.584Z,1015.89
2019-03-12T07:35:48.567Z,1015.91
2019-03-12T07:36:48.800Z,1015.92
2019-03-12T07:37:48.691Z,1015.92
2019-03-12T07:38:48.563Z,1015.94
2019-03-12T07:39:48.529Z,1015.88
2019-03-12T07:40:48.516Z,1015.88
2019-03-12T07:41:48.560Z,1015.90
2019-03-12T07:42:48.489Z,1015.88
2019-03-12T07:43:48.487Z,1015.88
2019-03-12T07:44:48.476Z,1015.76
2019-03-12T07:45:48.536Z,1015.73
2019-03-12T07:46:48.454Z,1015.72
2019-03-12T07:47:48.461Z,1015.76
2019-03-12T07:48:48.457Z,1015.81
2019-03-12T07:49:48.503Z,1015.67
2019-03-12T07:50:48.542Z,1015.66
2019-03-12T07:51:48.392Z,1015.67
2019-03-12T07:52:48.399Z,1015.65
2019-03-12T07:53:58.977Z,1015.66
2019-03-12T07:54:49.368Z,1015.65
2019-03-12T07:55:48.349Z,1015.66
2019-03-12T07:56:48.477Z,1015.70
2019-03-12T07:57:48.356Z,1015.67
2019-03-12T07:58:48.316Z,1015.64
2019-03-12T07:59:48.400Z,1015.64
2019-03-12T08:00:48.296Z,1015.64
2019-03-12T08:01:48.371Z,1015.57
2019-03-12T08:02:48.296Z,1015.60
2019-03-12T08:03:48.262Z,1015.63
2019-03-12T08:04:48.278Z,1015.63
2019-03-12T08:05:48.288Z,1015.61
2019-03-12T08:06:48.229Z,1015.62
2019-03-12T08:07:48.363Z,1015.67
2019-03-12T08:08:48.214Z,1015.64
2019-03-12T08:09:48.198Z,1015.62
2019-03-12T08:10:48.196Z,1015.54
2019-03-12T08:11:48.182Z,1015.61
2019-03-12T08:12:48.166Z,1015.60
2019-03-12T08:13:48.239Z,1015.63
2019-03-12T08:14:48.144Z,1015.59
2019-03-12T08:15:50.477Z,1015.66
2019-03-12T08:16:48.120Z,1015.67
2019-03-12T08:17:48.125Z,1015.63
2019-03-12T08:18:48.104Z,1015.62
2019-03-12T08:19:48.193Z,1015.65
2019-03-12T08:20:48.081Z,1015.60
2019-03-12T08:21:49.747Z,1015.62
2019-03-12T08:22:48.055Z,1015.63
2019-03-12T08:23:48.087Z,1015.67
2019-03-12T08:24:48.092Z,1015.59
2019-03-12T08:25:48.098Z,1015.62
2019-03-12T08:26:48.033Z,1015.63
2019-03-12T08:27:48.011Z,1015.57
2019-03-12T08:28:47.997Z,1015.61
2019-03-12T08:29:47.985Z,1015.52
2019-03-12T08:30:48.162Z,1015.56
2019-03-12T08:31:47.955Z,1015.56
2019-03-12T08:32:47.966Z,1015.51
2019-03-12T08:33:51.024Z,1015.45
2019-03-12T08:34:47.922Z,1015.48
2019-03-12T08:35:47.925Z,1015.46
2019-03-12T08:36:48.011Z,1015.42
2019-03-12T08:37:47.927Z,1015.39
2019-03-12T08:38:47.888Z,1015.44
2019-03-12T08:39:47.870Z,1015.47
2019-03-12T08:40:52.576Z,1015.40
2019-03-12T08:41:48.937Z,1015.42
2019-03-12T08:42:54.568Z,1015.45
2019-03-12T08:43:48.830Z,1015.46
2019-03-12T08:44:47.836Z,1015.48
2019-03-12T08:45:48.850Z,1015.36
2019-03-12T08:46:47.804Z,1015.39
2019-03-12T08:47:47.855Z,1015.34
2019-03-12T08:48:47.779Z,1015.36
2019-03-12T08:49:47.779Z,1015.35
2019-03-12T08:50:47.759Z,1015.36
2019-03-12T08:51:47.750Z,1015.37
2019-03-12T08:52:47.857Z,1015.30
2019-03-12T08:53:47.718Z,1015.28
2019-03-12T08:54:54.123Z,1015.26
2019-03-12T08:55:48.724Z,1015.30
2019-03-12T08:56:47.714Z,1015.30
2019-03-12T08:57:47.721Z,1015.29
2019-03-12T08:58:47.734Z,1015.20
2019-03-12T08:59:47.679Z,1015.21
2019-03-12T09:00:47.695Z,1015.23
2019-03-12T09:01:47.745Z,1015.29
2019-03-12T09:02:47.620Z,1015.28
2019-03-12T09:03:47.707Z,1015.30
2019-03-12T09:04:47.771Z,1015.28
2019-03-12T09:05:47.599Z,1015.24
2019-03-12T09:06:47.591Z,1015.31
2019-03-12T09:07:47.575Z,1015.32
2019-03-12T09:08:47.565Z,1015.24
2019-03-12T09:09:47.771Z,1015.23
2019-03-12T09:10:47.546Z,1015.26
2019-03-12T09:11:47.588Z,1015.21
2019-03-12T09:12:47.515Z,1015.21
2019-03-12T09:13:47.566Z,1015.34
2019-03-12T09:14:47.514Z,1015.18
2019-03-12T09:15:47.721Z,1015.09
2019-03-12T09:16:47.509Z,1015.14
2019-03-12T09:17:47.559Z,1015.05
2019-03-12T09:18:47.472Z,1015.05
2019-03-12T09:19:47.479Z,1015.01
2019-03-12T09:20:47.534Z,1015.04
2019-03-12T09:21:47.411Z,1015.02
2019-03-12T09:22:47.402Z,1014.94
2019-03-12T09:23:47.531Z,1014.97
2019-03-12T09:24:47.375Z,1014.97
2019-03-12T09:25:47.367Z,1014.92
2019-03-12T09:26:47.357Z,1014.94
2019-03-12T09:27:47.344Z,1014.91
2019-03-12T09:28:47.342Z,1014.88
2019-03-12T09:29:47.406Z,1014.85
2019-03-12T09:30:47.310Z,1014.89
2019-03-12T09:31:47.298Z,1014.76
2019-03-12T09:32:47.298Z,1014.85
2019-03-12T09:33:47.283Z,1014.77
2019-03-12T09:34:47.390Z,1014.74
2019-03-12T09:35:47.251Z,1014.76
2019-03-12T09:36:47.249Z,1014.81
2019-03-12T09:37:47.231Z,1014.77
2019-03-12T09:38:47.225Z,1014.82
2019-03-12T09:39:47.214Z,1014.88
2019-03-12T09:40:47.256Z,1014.99
2019-03-12T09:41:47.255Z,1014.80
2019-03-12T09:42:47.187Z,1014.90
2019-03-12T09:43:48.315Z,1015.08
2019-03-12T09:44:47.153Z,1015.02
2019-03-12T09:45:47.149Z,1014.95
2019-03-12T09:46:47.216Z,1014.82
2019-03-12T09:47:47.118Z,1014.73
2019-03-12T09:48:47.112Z,1014.65
2019-03-12T09:49:47.100Z,1014.65
2019-03-12T09:50:47.090Z,1014.73
2019-03-12T09:51:47.195Z,1014.59
2019-03-12T09:52:47.060Z,1014.53
2019-03-12T09:53:47.059Z,1014.62
2019-03-12T09:54:47.045Z,1014.56
2019-03-12T09:55:47.030Z,1014.52
2019-03-12T09:56:47.128Z,1014.48
2019-03-12T09:57:47.033Z,1014.47
2019-03-12T09:58:46.997Z,1014.56
2019-03-12T09:59:47.005Z,1014.48
2019-03-12T10:00:47.010Z,1014.51
2019-03-12T10:01:46.999Z,1014.55
2019-03-12T10:02:47.111Z,1014.44
2019-03-12T10:03:46.973Z,1014.47
2019-03-12T10:04:46.933Z,1014.40
2019-03-12T10:05:46.928Z,1014.48
2019-03-12T10:06:46.925Z,1014.49
2019-03-12T10:07:46.903Z,1014.40
2019-03-12T10:08:46.965Z,1014.36
2019-03-12T10:09:46.883Z,1014.39
2019-03-12T10:10:46.877Z,1014.33
2019-03-12T10:11:46.945Z,1014.35
2019-03-12T10:12:46.969Z,1014.32
2019-03-12T10:13:46.838Z,1014.26
2019-03-12T10:15:10.633Z,1014.29
2019-03-12T10:15:46.808Z,1014.23
2019-03-12T10:16:46.818Z,1014.25
2019-03-12T10:17:46.811Z,1014.25
2019-03-12T10:18:46.869Z,1014.32
2019-03-12T10:19:46.771Z,1014.23
2019-03-12T10:20:46.759Z,1014.24
2019-03-12T10:21:46.748Z,1014.06
2019-03-12T10:22:46.747Z,1014.12
2019-03-12T10:23:46.799Z,1014.16
2019-03-12T10:24:46.727Z,1014.02
2019-03-12T10:25:46.711Z,1014.04
2019-03-12T10:26:46.703Z,1014.08
2019-03-12T10:27:46.679Z,1014.03
2019-03-12T10:28:46.759Z,1013.98
2019-03-12T10:29:46.848Z,1013.97
2019-03-12T10:30:46.700Z,1013.95
2019-03-12T10:31:46.633Z,1014.04
2019-03-12T10:32:46.636Z,1013.85
2019-03-12T10:33:46.765Z,1013.79
2019-03-12T10:34:46.646Z,1013.75
2019-03-12T10:35:46.597Z,1013.75
2019-03-12T10:36:46.583Z,1013.79
2019-03-12T10:37:46.569Z,1013.73
2019-03-12T10:38:46.558Z,1013.78
2019-03-12T10:39:46.635Z,1013.69
2019-03-12T10:40:46.534Z,1013.89
2019-03-12T10:41:46.522Z,1014.16
2019-03-12T10:42:46.507Z,1014.22
2019-03-12T10:43:46.502Z,1013.68
2019-03-12T10:44:46.488Z,1013.66
2019-03-12T10:45:46.562Z,1013.69
2019-03-12T10:46:46.473Z,1013.56
2019-03-12T10:47:46.459Z,1014.04
2019-03-12T10:48:46.445Z,1013.81
2019-03-12T10:49:46.438Z,1013.80
2019-03-12T10:50:46.514Z,1014.00
2019-03-12T10:51:46.421Z,1014.12
2019-03-12T10:52:46.403Z,1014.10
2019-03-12T10:53:46.384Z,1014.10
2019-03-12T10:54:46.400Z,1013.66
2019-03-12T10:55:46.368Z,1014.12
2019-03-12T10:56:46.476Z,1014.04
2019-03-12T10:57:46.354Z,1014.17
2019-03-12T10:58:46.362Z,1014.11
2019-03-12T10:59:46.321Z,1013.93
2019-03-12T11:00:46.347Z,1013.58
2019-03-12T11:01:46.302Z,1013.92
2019-03-12T11:02:46.388Z,1014.06
2019-03-12T11:03:46.277Z,1013.71
2019-03-12T11:04:46.269Z,1013.53
2019-03-12T11:05:46.544Z,1013.60
2019-03-12T11:06:46.287Z,1013.95
2019-03-12T11:07:46.328Z,1013.88
2019-03-12T11:08:46.250Z,1013.84
2019-03-12T11:09:46.239Z,1013.80
2019-03-12T11:10:46.202Z,1013.78
2019-03-12T11:11:46.194Z,1013.22
2019-03-12T11:12:46.184Z,1013.17
2019-03-12T11:13:46.280Z,1013.25
2019-03-12T11:14:46.176Z,1013.81
2019-03-12T11:15:46.187Z,1013.75
2019-03-12T11:16:46.146Z,1013.61
2019-03-12T11:17:49.936Z,1013.71
2019-03-12T11:18:46.260Z,1013.48
2019-03-12T11:19:46.117Z,1013.60
2019-03-12T11:20:46.111Z,1013.02
2019-03-12T11:21:46.125Z,1013.13
2019-03-12T11:22:46.068Z,1013.11
2019-03-12T11:23:46.125Z,1013.18
2019-03-12T11:24:46.148Z,1013.59
2019-03-12T11:25:46.052Z,1013.47
2019-03-12T11:26:46.040Z,1013.47
2019-03-12T11:27:46.029Z,1013.48
2019-03-12T11:28:46.011Z,1013.47
2019-03-12T11:29:45.995Z,1013.39
2019-03-12T11:30:46.128Z,1013.43
2019-03-12T11:31:45.983Z,1013.37
2019-03-12T11:32:45.965Z,1013.35
2019-03-12T11:33:45.978Z,1013.39
2019-03-12T11:34:45.961Z,1013.02
2019-03-12T11:35:47.021Z,1013.00
2019-03-12T11:36:45.935Z,1012.95
2019-03-12T11:37:45.923Z,1012.89
2019-03-12T11:38:45.897Z,1012.89
2019-03-12T11:39:45.931Z,1012.86
2019-03-12T11:40:45.895Z,1012.85
2019-03-12T11:41:45.963Z,1013.25
2019-03-12T11:42:46.084Z,1013.27
2019-03-12T11:43:45.869Z,1012.81
2019-03-12T11:44:45.856Z,1012.82
2019-03-12T11:45:45.820Z,1012.74
2019-03-12T11:46:46.311Z,1012.69
2019-03-12T11:47:46.259Z,1012.71
2019-03-12T11:48:45.801Z,1012.79
2019-03-12T11:49:45.860Z,1012.74
2019-03-12T11:50:45.850Z,1013.05
2019-03-12T11:51:45.777Z,1012.60
2019-03-12T11:52:54.830Z,1012.60
2019-03-12T11:53:46.817Z,1012.56
2019-03-12T11:54:45.891Z,1012.54
2019-03-12T11:55:45.859Z,1012.59
2019-03-12T11:56:46.233Z,1012.57
2019-03-12T11:57:45.719Z,1012.53
2019-03-12T11:58:45.761Z,1012.52
2019-03-12T11:59:45.676Z,1012.50
2019-03-12T12:00:45.673Z,1012.50
2019-03-12T12:01:45.696Z,1012.71
2019-03-12T12:02:45.636Z,1012.86
2019-03-12T12:03:45.737Z,1012.47
2019-03-12T12:04:45.615Z,1012.82
2019-03-12T12:05:45.738Z,1012.60